Howard City, MI (49329)

5:57 AM EST on February 07, 2016 (GMT -0500)
Ensley Center - Snow Farm | | Change Station
CLOSE
Current Station
Personal Weather Station
Location: Howard City, MI
Elevation: 982 ft
Nearby Weather Stations

Elev 982 ft 43.36 °N, 85.62 °W | Updated 6 minutes ago

Overcast
Overcast
33.3 °F
Feels Like 26 °F
N
8.9
Wind Variable Wind from SSE

Today
High -- | Low -- °F
--% Chance of Precip.
Yesterday
High -- | Low -- °F
Precip. -- in
Pressure 29.87 in
Visibility 7.0 miles
Clouds Scattered Clouds 8000 ft
Overcast 9000 ft
Windchill 26 °F
Dew Point 32 °F
Humidity 95%
Rainfall 0.00 in
Snow Depth Not available.
7:51 AM 6:01 PM
Waning Crescent, 2% visible
METAR KRQB 071054Z AUTO 19004KT 7SM SCT080 OVC090 01/00 A2987 RMK AO2 T00071001
Pressure 29.87 in
Visibility 7.0 miles
Clouds Scattered Clouds 8000 ft
Overcast 9000 ft
Windchill 26 °F
Dew Point 32 °F
Humidity 95%
Rainfall 0.00 in
Snow Depth Not available.
7:51 AM 6:01 PM
Waning Crescent, 2% visible
METAR KRQB 071054Z AUTO 19004KT 7SM SCT080 OVC090 01/00 A2987 RMK AO2 T00071001

10-Day Weather Forecast

Almanac

Astronomy

Feb. 07, 2016 Rise Set
Actual Time
Civil Twilight
Nautical Twilight
Astronomical Twilight
Moon
Length of Visible Light
Length of Day
Tomorrow will be .
, % of the Moon is Illuminated

Today's Extremes

State Highs State Lows

Community

WunderPhotos

Upload Photos

1,891,171 photos uploaded!

WunderBlog® & News

Nearby

Air Quality

  Air Quality AQ Index Pollutant
Not available.

Snow Depth

Station Depth Elevation

Earthquake Activity

City Distance Mag. Time & Date
Minimum magnitude displayed is 2.5.

Coastal Water Temperatures

Place Temperature

Stations

Nearby Weather Stations

Station Location Temp. Windchill Dew Point Humidity Wind Precip. Elev Updated Type
                   

Watches & Warnings

There are currently no watches in effect.